sensor_id;sensor_type;location;lat;lon;timestamp;temperature;humidity
13697;DHT22;6920;50.080;8.226;2023-06-26T00:00:31;21.50;95.80
13697;DHT22;6920;50.080;8.226;2023-06-26T00:03:00;21.40;95.80
13697;DHT22;6920;50.080;8.226;2023-06-26T00:05:27;21.30;96.10
13697;DHT22;6920;50.080;8.226;2023-06-26T00:10:35;21.40;96.20
13697;DHT22;6920;50.080;8.226;2023-06-26T00:13:02;21.30;96.30
13697;DHT22;6920;50.080;8.226;2023-06-26T00:15:29;21.30;96.50
13697;DHT22;6920;50.080;8.226;2023-06-26T00:17:57;21.40;96.40
13697;DHT22;6920;50.080;8.226;2023-06-26T00:20:26;21.30;96.40
13697;DHT22;6920;50.080;8.226;2023-06-26T00:22:53;21.20;96.80
13697;DHT22;6920;50.080;8.226;2023-06-26T00:25:21;21.20;96.70
13697;DHT22;6920;50.080;8.226;2023-06-26T00:27:48;21.30;96.70
13697;DHT22;6920;50.080;8.226;2023-06-26T00:30:16;21.30;96.80
13697;DHT22;6920;50.080;8.226;2023-06-26T00:32:43;21.10;97.00
13697;DHT22;6920;50.080;8.226;2023-06-26T00:35:10;21.10;97.30
13697;DHT22;6920;50.080;8.226;2023-06-26T00:37:39;21.10;97.40
13697;DHT22;6920;50.080;8.226;2023-06-26T00:40:07;21.10;97.20
13697;DHT22;6920;50.080;8.226;2023-06-26T00:42:35;21.10;97.40
13697;DHT22;6920;50.080;8.226;2023-06-26T00:45:03;21.10;97.40
13697;DHT22;6920;50.080;8.226;2023-06-26T00:47:31;21.00;97.60
13697;DHT22;6920;50.080;8.226;2023-06-26T00:49:58;21.10;97.70
13697;DHT22;6920;50.080;8.226;2023-06-26T00:52:26;21.10;97.60
13697;DHT22;6920;50.080;8.226;2023-06-26T00:54:55;21.10;97.60
13697;DHT22;6920;50.080;8.226;2023-06-26T00:57:23;21.00;97.60
13697;DHT22;6920;50.080;8.226;2023-06-26T00:59:51;21.00;97.80
13697;DHT22;6920;50.080;8.226;2023-06-26T01:02:19;20.90;98.00
13697;DHT22;6920;50.080;8.226;2023-06-26T01:04:47;20.80;98.40
13697;DHT22;6920;50.080;8.226;2023-06-26T01:07:16;20.90;98.50
13697;DHT22;6920;50.080;8.226;2023-06-26T01:09:45;20.80;98.70
13697;DHT22;6920;50.080;8.226;2023-06-26T01:12:15;20.80;99.00
13697;DHT22;6920;50.080;8.226;2023-06-26T01:14:42;20.70;98.90
13697;DHT22;6920;50.080;8.226;2023-06-26T01:17:10;20.70;98.90
13697;DHT22;6920;50.080;8.226;2023-06-26T01:19:42;20.60;98.90
13697;DHT22;6920;50.080;8.226;2023-06-26T01:30:51;20.60;99.10
13697;DHT22;6920;50.080;8.226;2023-06-26T01:33:19;20.50;99.50
13697;DHT22;6920;50.080;8.226;2023-06-26T01:35:47;20.60;99.30
13697;DHT22;6920;50.080;8.226;2023-06-26T01:38:16;20.50;99.70
13697;DHT22;6920;50.080;8.226;2023-06-26T01:40:44;20.40;99.90
13697;DHT22;6920;50.080;8.226;2023-06-26T01:43:17;20.30;99.90
13697;DHT22;6920;50.080;8.226;2023-06-26T01:45:50;20.40;99.90
13697;DHT22;6920;50.080;8.226;2023-06-26T01:48:22;20.30;99.90
13697;DHT22;6920;50.080;8.226;2023-06-26T01:50:56;20.10;99.90
13697;DHT22;6920;50.080;8.226;2023-06-26T01:53:30;20.00;99.90
13697;DHT22;6920;50.080;8.226;2023-06-26T01:56:03;20.10;99.90
13697;DHT22;6920;50.080;8.226;2023-06-26T01:58:33;20.10;99.90
13697;DHT22;6920;50.080;8.226;2023-06-26T02:01:02;20.10;99.90
13697;DHT22;6920;50.080;8.226;2023-06-26T02:03:30;20.00;99.90
13697;DHT22;6920;50.080;8.226;2023-06-26T02:06:00;20.00;99.90
13697;DHT22;6920;50.080;8.226;2023-06-26T02:08:28;19.80;99.90
13697;DHT22;6920;50.080;8.226;2023-06-26T02:10:55;19.80;99.90
13697;DHT22;6920;50.080;8.226;2023-06-26T02:13:22;19.80;99.90
13697;DHT22;6920;50.080;8.226;2023-06-26T02:15:49;19.80;99.90
13697;DHT22;6920;50.080;8.226;2023-06-26T02:18:17;19.90;99.90
13697;DHT22;6920;50.080;8.226;2023-06-26T02:20:47;19.90;99.90
13697;DHT22;6920;50.080;8.226;2023-06-26T02:25:41;19.90;99.90
13697;DHT22;6920;50.080;8.226;2023-06-26T02:28:08;19.90;99.90
13697;DHT22;6920;50.080;8.226;2023-06-26T02:30:35;19.90;99.90
13697;DHT22;6920;50.080;8.226;2023-06-26T02:33:02;20.00;99.90
13697;DHT22;6920;50.080;8.226;2023-06-26T02:35:30;20.10;99.90
13697;DHT22;6920;50.080;8.226;2023-06-26T02:37:58;20.10;99.90
13697;DHT22;6920;50.080;8.226;2023-06-26T02:42:53;19.90;99.90
13697;DHT22;6920;50.080;8.226;2023-06-26T02:45:20;19.80;99.90
13697;DHT22;6920;50.080;8.226;2023-06-26T02:47:47;19.80;99.90
13697;DHT22;6920;50.080;8.226;2023-06-26T02:50:14;19.80;99.90
13697;DHT22;6920;50.080;8.226;2023-06-26T02:52:42;19.60;99.90
13697;DHT22;6920;50.080;8.226;2023-06-26T02:55:09;19.50;99.90
13697;DHT22;6920;50.080;8.226;2023-06-26T02:57:37;19.40;99.90
13697;DHT22;6920;50.080;8.226;2023-06-26T03:00:04;19.50;99.90
13697;DHT22;6920;50.080;8.226;2023-06-26T03:02:34;19.40;99.90
13697;DHT22;6920;50.080;8.226;2023-06-26T03:05:01;19.50;99.90
13697;DHT22;6920;50.080;8.226;2023-06-26T03:07:29;19.60;99.90
13697;DHT22;6920;50.080;8.226;2023-06-26T03:09:58;19.70;99.90
13697;DHT22;6920;50.080;8.226;2023-06-26T03:12:26;19.50;99.90
13697;DHT22;6920;50.080;8.226;2023-06-26T03:14:53;19.50;99.90
13697;DHT22;6920;50.080;8.226;2023-06-26T03:22:15;19.40;99.90
13697;DHT22;6920;50.080;8.226;2023-06-26T03:24:43;19.40;99.90
13697;DHT22;6920;50.080;8.226;2023-06-26T03:27:12;19.50;99.90
13697;DHT22;6920;50.080;8.226;2023-06-26T03:32:58;19.40;99.90
13697;DHT22;6920;50.080;8.226;2023-06-26T03:35:25;19.20;99.90
13697;DHT22;6920;50.080;8.226;2023-06-26T03:37:53;19.20;99.90
13697;DHT22;6920;50.080;8.226;2023-06-26T03:40:20;19.20;99.90
13697;DHT22;6920;50.080;8.226;2023-06-26T03:42:49;19.20;99.90
13697;DHT22;6920;50.080;8.226;2023-06-26T03:45:16;19.30;99.90
13697;DHT22;6920;50.080;8.226;2023-06-26T03:47:43;19.20;99.90
13697;DHT22;6920;50.080;8.226;2023-06-26T03:50:12;19.20;99.90
13697;DHT22;6920;50.080;8.226;2023-06-26T03:52:40;19.20;99.90
13697;DHT22;6920;50.080;8.226;2023-06-26T03:55:07;19.00;99.90
13697;DHT22;6920;50.080;8.226;2023-06-26T03:57:35;19.00;99.90
13697;DHT22;6920;50.080;8.226;2023-06-26T04:00:04;19.10;99.90
13697;DHT22;6920;50.080;8.226;2023-06-26T04:02:34;19.00;99.90
13697;DHT22;6920;50.080;8.226;2023-06-26T04:07:29;19.00;99.90
13697;DHT22;6920;50.080;8.226;2023-06-26T04:09:56;18.90;99.90
13697;DHT22;6920;50.080;8.226;2023-06-26T04:12:24;18.90;99.90
13697;DHT22;6920;50.080;8.226;2023-06-26T04:14:51;18.90;99.90
13697;DHT22;6920;50.080;8.226;2023-06-26T04:17:19;18.90;99.90
13697;DHT22;6920;50.080;8.226;2023-06-26T04:19:47;19.00;99.90
13697;DHT22;6920;50.080;8.226;2023-06-26T04:22:14;18.90;99.90
13697;DHT22;6920;50.080;8.226;2023-06-26T04:24:42;19.00;99.90
13697;DHT22;6920;50.080;8.226;2023-06-26T04:27:09;19.20;99.90
13697;DHT22;6920;50.080;8.226;2023-06-26T04:29:36;19.30;99.90
13697;DHT22;6920;50.080;8.226;2023-06-26T04:32:04;19.40;99.90
13697;DHT22;6920;50.080;8.226;2023-06-26T04:34:34;19.40;99.90
13697;DHT22;6920;50.080;8.226;2023-06-26T04:37:02;19.50;99.90
13697;DHT22;6920;50.080;8.226;2023-06-26T04:41:56;19.50;99.90
13697;DHT22;6920;50.080;8.226;2023-06-26T04:44:24;19.50;99.90
13697;DHT22;6920;50.080;8.226;2023-06-26T04:46:51;19.60;99.90
13697;DHT22;6920;50.080;8.226;2023-06-26T04:51:47;19.70;99.90
13697;DHT22;6920;50.080;8.226;2023-06-26T04:54:15;19.70;99.90
13697;DHT22;6920;50.080;8.226;2023-06-26T04:56:42;19.70;99.90
13697;DHT22;6920;50.080;8.226;2023-06-26T04:59:13;19.90;99.90
13697;DHT22;6920;50.080;8.226;2023-06-26T05:01:40;19.90;99.90
13697;DHT22;6920;50.080;8.226;2023-06-26T05:04:07;20.00;99.90
13697;DHT22;6920;50.080;8.226;2023-06-26T05:06:34;20.00;99.90
13697;DHT22;6920;50.080;8.226;2023-06-26T05:09:03;20.10;99.90
13697;DHT22;6920;50.080;8.226;2023-06-26T05:13:57;20.20;99.90
13697;DHT22;6920;50.080;8.226;2023-06-26T05:18:52;20.40;99.90
13697;DHT22;6920;50.080;8.226;2023-06-26T05:21:20;20.40;99.90
13697;DHT22;6920;50.080;8.226;2023-06-26T05:23:48;20.60;99.90
13697;DHT22;6920;50.080;8.226;2023-06-26T05:26:18;20.70;99.90
13697;DHT22;6920;50.080;8.226;2023-06-26T05:28:45;20.90;99.90
13697;DHT22;6920;50.080;8.226;2023-06-26T05:31:14;20.90;99.90
13697;DHT22;6920;50.080;8.226;2023-06-26T05:33:43;21.00;99.90
13697;DHT22;6920;50.080;8.226;2023-06-26T05:36:12;21.10;99.90
13697;DHT22;6920;50.080;8.226;2023-06-26T05:38:40;21.20;99.90
13697;DHT22;6920;50.080;8.226;2023-06-26T05:41:08;21.30;99.90
13697;DHT22;6920;50.080;8.226;2023-06-26T05:43:36;21.50;99.90
13697;DHT22;6920;50.080;8.226;2023-06-26T05:46:03;21.60;99.90
13697;DHT22;6920;50.080;8.226;2023-06-26T05:48:30;21.60;99.90
13697;DHT22;6920;50.080;8.226;2023-06-26T05:50:58;21.80;99.90
13697;DHT22;6920;50.080;8.226;2023-06-26T05:53:25;21.80;99.90
13697;DHT22;6920;50.080;8.226;2023-06-26T05:55:53;21.90;99.90
13697;DHT22;6920;50.080;8.226;2023-06-26T05:58:21;21.90;99.90
13697;DHT22;6920;50.080;8.226;2023-06-26T06:00:51;22.00;99.90
13697;DHT22;6920;50.080;8.226;2023-06-26T06:05:46;22.40;99.90
13697;DHT22;6920;50.080;8.226;2023-06-26T06:08:13;22.50;99.90
13697;DHT22;6920;50.080;8.226;2023-06-26T06:10:40;22.60;99.90
13697;DHT22;6920;50.080;8.226;2023-06-26T06:13:07;22.60;99.90
13697;DHT22;6920;50.080;8.226;2023-06-26T06:18:03;22.80;99.90
13697;DHT22;6920;50.080;8.226;2023-06-26T06:20:30;23.10;99.90
13697;DHT22;6920;50.080;8.226;2023-06-26T06:23:34;23.80;99.90
13697;DHT22;6920;50.080;8.226;2023-06-26T06:26:01;24.80;99.90
13697;DHT22;6920;50.080;8.226;2023-06-26T06:30:56;25.70;99.70
13697;DHT22;6920;50.080;8.226;2023-06-26T06:33:24;25.20;99.90
13697;DHT22;6920;50.080;8.226;2023-06-26T06:35:51;25.40;99.80
13697;DHT22;6920;50.080;8.226;2023-06-26T06:38:19;25.90;99.30
13697;DHT22;6920;50.080;8.226;2023-06-26T06:40:46;25.90;98.60
13697;DHT22;6920;50.080;8.226;2023-06-26T06:43:13;26.00;99.10
13697;DHT22;6920;50.080;8.226;2023-06-26T06:48:08;27.20;97.30
13697;DHT22;6920;50.080;8.226;2023-06-26T06:50:37;27.00;97.40
13697;DHT22;6920;50.080;8.226;2023-06-26T06:53:04;27.30;96.80
13697;DHT22;6920;50.080;8.226;2023-06-26T06:55:31;27.40;96.60
13697;DHT22;6920;50.080;8.226;2023-06-26T06:57:58;27.40;96.50
13697;DHT22;6920;50.080;8.226;2023-06-26T07:00:26;27.30;95.70
13697;DHT22;6920;50.080;8.226;2023-06-26T07:05:22;27.00;95.90
13697;DHT22;6920;50.080;8.226;2023-06-26T07:07:50;27.10;95.10
13697;DHT22;6920;50.080;8.226;2023-06-26T07:10:17;27.40;94.80
13697;DHT22;6920;50.080;8.226;2023-06-26T07:12:45;27.10;94.70
13697;DHT22;6920;50.080;8.226;2023-06-26T07:15:12;27.30;95.10
13697;DHT22;6920;50.080;8.226;2023-06-26T07:17:39;27.30;94.60
13697;DHT22;6920;50.080;8.226;2023-06-26T07:20:07;27.30;95.10
13697;DHT22;6920;50.080;8.226;2023-06-26T07:25:05;27.00;95.10
13697;DHT22;6920;50.080;8.226;2023-06-26T07:27:34;27.40;94.60
13697;DHT22;6920;50.080;8.226;2023-06-26T07:30:03;27.40;93.80
13697;DHT22;6920;50.080;8.226;2023-06-26T07:34:58;27.80;93.30
13697;DHT22;6920;50.080;8.226;2023-06-26T07:37:25;27.80;92.90
13697;DHT22;6920;50.080;8.226;2023-06-26T07:42:21;28.30;92.00
13697;DHT22;6920;50.080;8.226;2023-06-26T07:44:49;28.20;92.20
13697;DHT22;6920;50.080;8.226;2023-06-26T07:47:16;28.10;92.10
13697;DHT22;6920;50.080;8.226;2023-06-26T07:49:43;27.90;92.30
13697;DHT22;6920;50.080;8.226;2023-06-26T07:52:11;27.70;92.50
13697;DHT22;6920;50.080;8.226;2023-06-26T07:57:08;27.40;92.70
13697;DHT22;6920;50.080;8.226;2023-06-26T07:59:39;27.00;93.10
13697;DHT22;6920;50.080;8.226;2023-06-26T08:02:06;26.90;93.60
13697;DHT22;6920;50.080;8.226;2023-06-26T08:04:33;26.60;93.70
13697;DHT22;6920;50.080;8.226;2023-06-26T08:07:01;27.30;93.70
13697;DHT22;6920;50.080;8.226;2023-06-26T08:09:31;27.70;93.20
13697;DHT22;6920;50.080;8.226;2023-06-26T08:11:59;28.20;92.80
13697;DHT22;6920;50.080;8.226;2023-06-26T08:16:55;28.80;92.70
13697;DHT22;6920;50.080;8.226;2023-06-26T08:19:22;29.10;92.70
13697;DHT22;6920;50.080;8.226;2023-06-26T08:21:50;29.40;92.30
13697;DHT22;6920;50.080;8.226;2023-06-26T08:24:17;29.80;91.90
13697;DHT22;6920;50.080;8.226;2023-06-26T08:26:45;30.10;91.90
13697;DHT22;6920;50.080;8.226;2023-06-26T08:29:13;30.60;91.00
13697;DHT22;6920;50.080;8.226;2023-06-26T08:31:41;30.40;90.70
13697;DHT22;6920;50.080;8.226;2023-06-26T08:34:10;29.90;90.80
13697;DHT22;6920;50.080;8.226;2023-06-26T08:36:37;29.10;91.40
13697;DHT22;6920;50.080;8.226;2023-06-26T08:39:05;28.50;91.60
13697;DHT22;6920;50.080;8.226;2023-06-26T08:41:34;28.20;91.90
13697;DHT22;6920;50.080;8.226;2023-06-26T08:44:02;28.60;91.80
13697;DHT22;6920;50.080;8.226;2023-06-26T08:46:30;29.00;91.60
13697;DHT22;6920;50.080;8.226;2023-06-26T08:49:08;29.50;91.50
13697;DHT22;6920;50.080;8.226;2023-06-26T08:51:43;29.90;91.00
13697;DHT22;6920;50.080;8.226;2023-06-26T08:54:15;30.40;90.70
13697;DHT22;6920;50.080;8.226;2023-06-26T08:56:47;30.50;91.00
13697;DHT22;6920;50.080;8.226;2023-06-26T08:59:16;30.90;90.50
13697;DHT22;6920;50.080;8.226;2023-06-26T09:01:43;30.90;90.10
13697;DHT22;6920;50.080;8.226;2023-06-26T09:04:10;30.90;91.10
13697;DHT22;6920;50.080;8.226;2023-06-26T09:06:38;30.90;90.40
13697;DHT22;6920;50.080;8.226;2023-06-26T09:09:41;31.00;90.50
13697;DHT22;6920;50.080;8.226;2023-06-26T09:12:09;30.90;90.80
13697;DHT22;6920;50.080;8.226;2023-06-26T09:14:37;30.60;90.30
13697;DHT22;6920;50.080;8.226;2023-06-26T09:17:04;29.90;90.80
13697;DHT22;6920;50.080;8.226;2023-06-26T09:22:00;29.30;91.40
13697;DHT22;6920;50.080;8.226;2023-06-26T09:24:27;29.40;91.60
13697;DHT22;6920;50.080;8.226;2023-06-26T09:27:01;29.30;91.10
13697;DHT22;6920;50.080;8.226;2023-06-26T09:29:28;29.10;91.10
13697;DHT22;6920;50.080;8.226;2023-06-26T09:31:57;29.10;91.00
13697;DHT22;6920;50.080;8.226;2023-06-26T09:34:30;29.50;90.40
13697;DHT22;6920;50.080;8.226;2023-06-26T09:36:58;29.90;90.20
13697;DHT22;6920;50.080;8.226;2023-06-26T09:39:30;29.90;90.10
13697;DHT22;6920;50.080;8.226;2023-06-26T09:41:59;29.80;90.00
13697;DHT22;6920;50.080;8.226;2023-06-26T09:44:28;29.60;89.90
13697;DHT22;6920;50.080;8.226;2023-06-26T09:46:57;29.20;90.10
13697;DHT22;6920;50.080;8.226;2023-06-26T09:49:24;29.00;90.40
13697;DHT22;6920;50.080;8.226;2023-06-26T09:51:53;28.90;90.60
13697;DHT22;6920;50.080;8.226;2023-06-26T09:54:21;29.30;90.60
13697;DHT22;6920;50.080;8.226;2023-06-26T09:59:17;29.90;90.00
13697;DHT22;6920;50.080;8.226;2023-06-26T10:01:46;30.20;89.60
13697;DHT22;6920;50.080;8.226;2023-06-26T10:04:13;30.50;89.50
13697;DHT22;6920;50.080;8.226;2023-06-26T10:06:46;30.70;88.80
13697;DHT22;6920;50.080;8.226;2023-06-26T10:09:17;30.90;89.30
13697;DHT22;6920;50.080;8.226;2023-06-26T10:11:47;31.00;88.70
13697;DHT22;6920;50.080;8.226;2023-06-26T10:14:19;30.90;89.00
13697;DHT22;6920;50.080;8.226;2023-06-26T10:16:48;30.70;89.10
13697;DHT22;6920;50.080;8.226;2023-06-26T10:19:19;31.00;88.80
13697;DHT22;6920;50.080;8.226;2023-06-26T10:21:51;31.00;88.50
13697;DHT22;6920;50.080;8.226;2023-06-26T10:24:19;31.20;89.30
13697;DHT22;6920;50.080;8.226;2023-06-26T10:26:50;31.10;89.10
13697;DHT22;6920;50.080;8.226;2023-06-26T10:29:21;31.40;89.50
13697;DHT22;6920;50.080;8.226;2023-06-26T10:31:51;31.30;89.30
13697;DHT22;6920;50.080;8.226;2023-06-26T10:39:17;30.70;90.30
13697;DHT22;6920;50.080;8.226;2023-06-26T10:41:44;30.60;90.20
13697;DHT22;6920;50.080;8.226;2023-06-26T10:44:13;30.80;90.40
13697;DHT22;6920;50.080;8.226;2023-06-26T10:46:50;31.00;89.40
13697;DHT22;6920;50.080;8.226;2023-06-26T10:51:49;30.50;90.10
13697;DHT22;6920;50.080;8.226;2023-06-26T10:54:18;30.30;90.30
13697;DHT22;6920;50.080;8.226;2023-06-26T10:56:47;30.40;90.40
13697;DHT22;6920;50.080;8.226;2023-06-26T10:59:18;30.90;89.80
13697;DHT22;6920;50.080;8.226;2023-06-26T11:01:47;31.00;90.20
13697;DHT22;6920;50.080;8.226;2023-06-26T11:04:36;31.10;90.20
13697;DHT22;6920;50.080;8.226;2023-06-26T11:07:18;30.60;90.00
13697;DHT22;6920;50.080;8.226;2023-06-26T11:09:56;30.60;90.30
13697;DHT22;6920;50.080;8.226;2023-06-26T11:12:37;30.90;89.30
13697;DHT22;6920;50.080;8.226;2023-06-26T11:15:08;31.40;87.50
13697;DHT22;6920;50.080;8.226;2023-06-26T11:20:05;31.30;87.70
13697;DHT22;6920;50.080;8.226;2023-06-26T11:22:35;30.80;89.80
13697;DHT22;6920;50.080;8.226;2023-06-26T11:25:03;30.10;90.00
13697;DHT22;6920;50.080;8.226;2023-06-26T11:27:32;30.10;90.00
13697;DHT22;6920;50.080;8.226;2023-06-26T11:32:27;30.40;89.90
13697;DHT22;6920;50.080;8.226;2023-06-26T11:34:55;30.80;90.00
13697;DHT22;6920;50.080;8.226;2023-06-26T11:37:24;30.70;89.40
13697;DHT22;6920;50.080;8.226;2023-06-26T11:39:52;30.80;89.70
13697;DHT22;6920;50.080;8.226;2023-06-26T11:42:20;30.60;88.80
13697;DHT22;6920;50.080;8.226;2023-06-26T11:44:47;30.40;89.00
13697;DHT22;6920;50.080;8.226;2023-06-26T11:47:15;30.20;89.80
13697;DHT22;6920;50.080;8.226;2023-06-26T11:49:43;29.90;90.70
13697;DHT22;6920;50.080;8.226;2023-06-26T11:52:10;29.70;90.80
13697;DHT22;6920;50.080;8.226;2023-06-26T11:54:45;30.10;90.50
13697;DHT22;6920;50.080;8.226;2023-06-26T11:57:14;30.30;90.30
13697;DHT22;6920;50.080;8.226;2023-06-26T11:59:43;29.70;90.70
13697;DHT22;6920;50.080;8.226;2023-06-26T12:02:13;29.60;90.90
13697;DHT22;6920;50.080;8.226;2023-06-26T12:04:41;29.30;91.40
13697;DHT22;6920;50.080;8.226;2023-06-26T12:07:09;29.40;91.50
13697;DHT22;6920;50.080;8.226;2023-06-26T12:09:42;29.30;91.80
13697;DHT22;6920;50.080;8.226;2023-06-26T12:12:12;29.50;91.70
13697;DHT22;6920;50.080;8.226;2023-06-26T12:14:41;29.30;91.70
13697;DHT22;6920;50.080;8.226;2023-06-26T12:17:09;29.20;92.10
13697;DHT22;6920;50.080;8.226;2023-06-26T12:19:37;29.00;92.20
13697;DHT22;6920;50.080;8.226;2023-06-26T12:22:07;28.90;92.40
13697;DHT22;6920;50.080;8.226;2023-06-26T12:24:36;29.50;92.20
13697;DHT22;6920;50.080;8.226;2023-06-26T12:27:10;29.90;91.80
13697;DHT22;6920;50.080;8.226;2023-06-26T12:29:38;30.40;91.50
13697;DHT22;6920;50.080;8.226;2023-06-26T12:32:08;30.30;91.40
13697;DHT22;6920;50.080;8.226;2023-06-26T12:34:37;30.20;91.10
13697;DHT22;6920;50.080;8.226;2023-06-26T12:37:07;29.90;91.00
13697;DHT22;6920;50.080;8.226;2023-06-26T12:39:45;29.80;91.30
13697;DHT22;6920;50.080;8.226;2023-06-26T12:42:16;29.90;91.20
13697;DHT22;6920;50.080;8.226;2023-06-26T12:44:44;30.00;91.50
13697;DHT22;6920;50.080;8.226;2023-06-26T12:47:12;30.00;91.40
13697;DHT22;6920;50.080;8.226;2023-06-26T12:49:41;30.20;91.10
13697;DHT22;6920;50.080;8.226;2023-06-26T12:52:10;30.20;91.20
13697;DHT22;6920;50.080;8.226;2023-06-26T12:54:39;30.00;90.60
13697;DHT22;6920;50.080;8.226;2023-06-26T12:57:07;29.90;90.70
13697;DHT22;6920;50.080;8.226;2023-06-26T12:59:37;30.10;90.50
13697;DHT22;6920;50.080;8.226;2023-06-26T13:02:05;30.10;90.50
13697;DHT22;6920;50.080;8.226;2023-06-26T13:04:34;30.40;90.50
13697;DHT22;6920;50.080;8.226;2023-06-26T13:07:02;30.70;90.30
13697;DHT22;6920;50.080;8.226;2023-06-26T13:09:33;30.60;87.90
13697;DHT22;6920;50.080;8.226;2023-06-26T13:12:01;30.60;88.00
13697;DHT22;6920;50.080;8.226;2023-06-26T13:14:30;30.50;87.90
13697;DHT22;6920;50.080;8.226;2023-06-26T13:17:00;30.40;88.10
13697;DHT22;6920;50.080;8.226;2023-06-26T13:19:28;30.50;87.20
13697;DHT22;6920;50.080;8.226;2023-06-26T13:21:55;30.40;86.80
13697;DHT22;6920;50.080;8.226;2023-06-26T13:24:22;30.20;87.20
13697;DHT22;6920;50.080;8.226;2023-06-26T13:26:49;30.00;88.30
13697;DHT22;6920;50.080;8.226;2023-06-26T13:29:16;30.20;88.30
13697;DHT22;6920;50.080;8.226;2023-06-26T13:31:43;30.30;88.00
13697;DHT22;6920;50.080;8.226;2023-06-26T13:34:20;30.10;88.80
13697;DHT22;6920;50.080;8.226;2023-06-26T13:39:16;29.40;88.90
13697;DHT22;6920;50.080;8.226;2023-06-26T13:41:43;29.30;88.20
13697;DHT22;6920;50.080;8.226;2023-06-26T13:44:10;29.50;88.90
13697;DHT22;6920;50.080;8.226;2023-06-26T13:46:37;30.00;87.40
13697;DHT22;6920;50.080;8.226;2023-06-26T13:49:04;30.10;86.50
13697;DHT22;6920;50.080;8.226;2023-06-26T13:51:32;30.30;86.30
13697;DHT22;6920;50.080;8.226;2023-06-26T13:54:00;30.20;86.30
13697;DHT22;6920;50.080;8.226;2023-06-26T13:56:27;30.30;85.70
13697;DHT22;6920;50.080;8.226;2023-06-26T13:58:56;30.00;86.60
13697;DHT22;6920;50.080;8.226;2023-06-26T14:01:24;30.00;85.70
13697;DHT22;6920;50.080;8.226;2023-06-26T14:03:52;29.70;85.60
13697;DHT22;6920;50.080;8.226;2023-06-26T14:06:19;29.40;85.50
13697;DHT22;6920;50.080;8.226;2023-06-26T14:08:47;29.50;84.40
13697;DHT22;6920;50.080;8.226;2023-06-26T14:11:15;29.50;85.70
13697;DHT22;6920;50.080;8.226;2023-06-26T14:16:09;29.90;83.50
13697;DHT22;6920;50.080;8.226;2023-06-26T14:21:05;29.30;83.00
13697;DHT22;6920;50.080;8.226;2023-06-26T14:23:32;28.80;83.20
13697;DHT22;6920;50.080;8.226;2023-06-26T14:26:01;28.70;83.10
13697;DHT22;6920;50.080;8.226;2023-06-26T14:28:28;28.40;82.90
13697;DHT22;6920;50.080;8.226;2023-06-26T14:30:55;28.40;83.30
13697;DHT22;6920;50.080;8.226;2023-06-26T14:33:22;28.70;82.20
13697;DHT22;6920;50.080;8.226;2023-06-26T14:35:49;28.90;82.20
13697;DHT22;6920;50.080;8.226;2023-06-26T14:38:16;29.00;81.60
13697;DHT22;6920;50.080;8.226;2023-06-26T14:40:43;28.90;81.40
13697;DHT22;6920;50.080;8.226;2023-06-26T14:43:12;28.70;81.40
13697;DHT22;6920;50.080;8.226;2023-06-26T14:45:39;28.50;81.70
13697;DHT22;6920;50.080;8.226;2023-06-26T14:48:06;28.30;80.80
13697;DHT22;6920;50.080;8.226;2023-06-26T14:50:33;28.40;81.10
13697;DHT22;6920;50.080;8.226;2023-06-26T14:53:00;28.50;81.60
13697;DHT22;6920;50.080;8.226;2023-06-26T14:55:28;28.60;80.90
13697;DHT22;6920;50.080;8.226;2023-06-26T15:00:24;28.80;79.50
13697;DHT22;6920;50.080;8.226;2023-06-26T15:05:20;28.30;80.60
13697;DHT22;6920;50.080;8.226;2023-06-26T15:07:48;28.10;80.70
13697;DHT22;6920;50.080;8.226;2023-06-26T15:10:15;28.00;79.60
13697;DHT22;6920;50.080;8.226;2023-06-26T15:12:42;28.20;80.30
13697;DHT22;6920;50.080;8.226;2023-06-26T15:15:10;28.00;79.90
13697;DHT22;6920;50.080;8.226;2023-06-26T15:17:39;27.90;80.70
13697;DHT22;6920;50.080;8.226;2023-06-26T15:20:07;28.10;80.70
13697;DHT22;6920;50.080;8.226;2023-06-26T15:25:01;28.50;79.40
13697;DHT22;6920;50.080;8.226;2023-06-26T15:29:55;28.30;79.30
13697;DHT22;6920;50.080;8.226;2023-06-26T15:32:22;28.30;79.60
13697;DHT22;6920;50.080;8.226;2023-06-26T15:34:51;28.20;79.10
13697;DHT22;6920;50.080;8.226;2023-06-26T15:37:19;28.00;80.00
13697;DHT22;6920;50.080;8.226;2023-06-26T15:42:14;27.80;79.00
13697;DHT22;6920;50.080;8.226;2023-06-26T15:44:41;27.90;79.10
13697;DHT22;6920;50.080;8.226;2023-06-26T15:49:36;27.90;80.00
13697;DHT22;6920;50.080;8.226;2023-06-26T15:52:05;27.90;80.10
13697;DHT22;6920;50.080;8.226;2023-06-26T15:54:34;27.70;80.00
13697;DHT22;6920;50.080;8.226;2023-06-26T15:57:05;27.50;79.30
13697;DHT22;6920;50.080;8.226;2023-06-26T15:59:32;27.60;79.90
13697;DHT22;6920;50.080;8.226;2023-06-26T16:04:28;27.10;80.10
13697;DHT22;6920;50.080;8.226;2023-06-26T16:06:57;27.00;81.00
13697;DHT22;6920;50.080;8.226;2023-06-26T16:09:26;26.90;79.60
13697;DHT22;6920;50.080;8.226;2023-06-26T16:11:53;26.80;79.80
13697;DHT22;6920;50.080;8.226;2023-06-26T16:14:20;26.60;80.10
13697;DHT22;6920;50.080;8.226;2023-06-26T16:16:47;26.50;80.00
13697;DHT22;6920;50.080;8.226;2023-06-26T16:21:41;26.70;79.90
13697;DHT22;6920;50.080;8.226;2023-06-26T16:24:08;26.50;79.90
13697;DHT22;6920;50.080;8.226;2023-06-26T16:26:37;26.50;80.20
13697;DHT22;6920;50.080;8.226;2023-06-26T16:31:31;26.50;80.30
13697;DHT22;6920;50.080;8.226;2023-06-26T16:33:59;26.40;80.20
13697;DHT22;6920;50.080;8.226;2023-06-26T16:38:54;26.40;80.60
13697;DHT22;6920;50.080;8.226;2023-06-26T16:41:21;26.20;80.30
13697;DHT22;6920;50.080;8.226;2023-06-26T16:43:50;26.00;79.90
13697;DHT22;6920;50.080;8.226;2023-06-26T16:46:20;26.00;80.30
13697;DHT22;6920;50.080;8.226;2023-06-26T16:48:51;26.00;80.30
13697;DHT22;6920;50.080;8.226;2023-06-26T16:53:55;25.90;79.20
13697;DHT22;6920;50.080;8.226;2023-06-26T16:59:26;25.70;79.60
13697;DHT22;6920;50.080;8.226;2023-06-26T17:01:54;25.50;78.90
13697;DHT22;6920;50.080;8.226;2023-06-26T17:04:29;25.50;79.30
13697;DHT22;6920;50.080;8.226;2023-06-26T17:07:02;25.50;78.80
13697;DHT22;6920;50.080;8.226;2023-06-26T17:09:54;25.40;79.20
13697;DHT22;6920;50.080;8.226;2023-06-26T17:12:25;25.20;79.20
13697;DHT22;6920;50.080;8.226;2023-06-26T17:21:15;24.90;80.80
13697;DHT22;6920;50.080;8.226;2023-06-26T17:28:38;24.80;80.80
13697;DHT22;6920;50.080;8.226;2023-06-26T17:31:06;24.80;81.00
13697;DHT22;6920;50.080;8.226;2023-06-26T17:33:43;24.60;81.70
13697;DHT22;6920;50.080;8.226;2023-06-26T17:36:12;24.60;81.90
13697;DHT22;6920;50.080;8.226;2023-06-26T17:38:41;24.40;81.70
13697;DHT22;6920;50.080;8.226;2023-06-26T17:41:08;24.40;82.30
13697;DHT22;6920;50.080;8.226;2023-06-26T17:43:36;24.50;82.30
13697;DHT22;6920;50.080;8.226;2023-06-26T17:46:03;24.50;82.00
13697;DHT22;6920;50.080;8.226;2023-06-26T17:48:31;24.30;81.50
13697;DHT22;6920;50.080;8.226;2023-06-26T17:50:59;24.20;82.30
13697;DHT22;6920;50.080;8.226;2023-06-26T17:53:29;24.10;82.10
13697;DHT22;6920;50.080;8.226;2023-06-26T17:55:59;24.00;81.60
13697;DHT22;6920;50.080;8.226;2023-06-26T17:58:27;24.00;81.70
13697;DHT22;6920;50.080;8.226;2023-06-26T18:00:55;23.90;81.80